sensor_id;sensor_type;location;lat;lon;timestamp;temperature;humidity
14908;DHT22;7545;52.092;7.006;2024-01-06T00:01:43;6.70;99.90
14908;DHT22;7545;52.092;7.006;2024-01-06T00:04:09;6.70;99.90
14908;DHT22;7545;52.092;7.006;2024-01-06T00:06:34;6.70;99.90
14908;DHT22;7545;52.092;7.006;2024-01-06T00:09:00;6.70;99.90
14908;DHT22;7545;52.092;7.006;2024-01-06T00:11:25;6.70;99.90
14908;DHT22;7545;52.092;7.006;2024-01-06T00:13:51;6.70;99.90
14908;DHT22;7545;52.092;7.006;2024-01-06T00:16:17;6.70;99.90
14908;DHT22;7545;52.092;7.006;2024-01-06T00:18:47;6.70;99.90
14908;DHT22;7545;52.092;7.006;2024-01-06T00:21:12;6.70;99.90
14908;DHT22;7545;52.092;7.006;2024-01-06T00:23:40;6.70;99.90
14908;DHT22;7545;52.092;7.006;2024-01-06T00:26:06;6.60;99.90
14908;DHT22;7545;52.092;7.006;2024-01-06T00:28:32;6.70;99.90
14908;DHT22;7545;52.092;7.006;2024-01-06T00:30:57;6.70;99.90
14908;DHT22;7545;52.092;7.006;2024-01-06T00:33:23;6.60;99.90
14908;DHT22;7545;52.092;7.006;2024-01-06T00:35:48;6.60;99.90
14908;DHT22;7545;52.092;7.006;2024-01-06T00:38:14;6.60;99.90
14908;DHT22;7545;52.092;7.006;2024-01-06T00:40:39;6.60;99.90
14908;DHT22;7545;52.092;7.006;2024-01-06T00:43:05;6.60;99.90
14908;DHT22;7545;52.092;7.006;2024-01-06T00:45:30;6.60;99.90
14908;DHT22;7545;52.092;7.006;2024-01-06T00:47:56;6.50;99.90
14908;DHT22;7545;52.092;7.006;2024-01-06T00:50:23;6.50;99.90
14908;DHT22;7545;52.092;7.006;2024-01-06T00:52:48;6.50;99.90
14908;DHT22;7545;52.092;7.006;2024-01-06T00:55:20;6.50;99.90
14908;DHT22;7545;52.092;7.006;2024-01-06T00:57:46;6.50;99.90
14908;DHT22;7545;52.092;7.006;2024-01-06T01:00:11;6.50;99.90
14908;DHT22;7545;52.092;7.006;2024-01-06T01:02:38;6.50;99.90
14908;DHT22;7545;52.092;7.006;2024-01-06T01:05:03;6.40;99.90
14908;DHT22;7545;52.092;7.006;2024-01-06T01:07:29;6.30;99.90
14908;DHT22;7545;52.092;7.006;2024-01-06T01:09:54;6.30;99.90
14908;DHT22;7545;52.092;7.006;2024-01-06T01:12:22;6.30;99.90
14908;DHT22;7545;52.092;7.006;2024-01-06T01:14:48;6.30;99.90
14908;DHT22;7545;52.092;7.006;2024-01-06T01:17:13;6.30;99.90
14908;DHT22;7545;52.092;7.006;2024-01-06T01:19:40;6.30;99.90
14908;DHT22;7545;52.092;7.006;2024-01-06T01:22:05;6.30;99.90
14908;DHT22;7545;52.092;7.006;2024-01-06T01:24:31;6.20;99.90
14908;DHT22;7545;52.092;7.006;2024-01-06T01:26:56;6.20;99.90
14908;DHT22;7545;52.092;7.006;2024-01-06T01:29:22;6.20;99.90
14908;DHT22;7545;52.092;7.006;2024-01-06T01:31:47;6.20;99.90
14908;DHT22;7545;52.092;7.006;2024-01-06T01:34:13;6.20;99.90
14908;DHT22;7545;52.092;7.006;2024-01-06T01:36:39;6.20;99.90
14908;DHT22;7545;52.092;7.006;2024-01-06T01:39:05;6.20;99.90
14908;DHT22;7545;52.092;7.006;2024-01-06T01:41:30;6.30;99.90
14908;DHT22;7545;52.092;7.006;2024-01-06T01:43:56;6.20;99.90
14908;DHT22;7545;52.092;7.006;2024-01-06T01:46:26;6.20;99.90
14908;DHT22;7545;52.092;7.006;2024-01-06T01:48:56;6.10;99.90
14908;DHT22;7545;52.092;7.006;2024-01-06T01:51:24;6.10;99.90
14908;DHT22;7545;52.092;7.006;2024-01-06T01:53:50;6.10;99.90
14908;DHT22;7545;52.092;7.006;2024-01-06T01:56:16;6.00;99.90
14908;DHT22;7545;52.092;7.006;2024-01-06T01:58:42;6.00;99.90
14908;DHT22;7545;52.092;7.006;2024-01-06T02:01:08;6.00;99.90
14908;DHT22;7545;52.092;7.006;2024-01-06T02:03:34;6.00;99.90
14908;DHT22;7545;52.092;7.006;2024-01-06T02:06:00;6.00;99.90
14908;DHT22;7545;52.092;7.006;2024-01-06T02:08:26;5.90;99.90
14908;DHT22;7545;52.092;7.006;2024-01-06T02:10:54;5.90;99.90
14908;DHT22;7545;52.092;7.006;2024-01-06T02:13:20;5.90;99.90
14908;DHT22;7545;52.092;7.006;2024-01-06T02:15:45;5.90;99.90
14908;DHT22;7545;52.092;7.006;2024-01-06T02:18:11;5.80;99.90
14908;DHT22;7545;52.092;7.006;2024-01-06T02:20:37;5.80;99.90
14908;DHT22;7545;52.092;7.006;2024-01-06T02:23:03;5.80;99.90
14908;DHT22;7545;52.092;7.006;2024-01-06T02:25:28;5.70;99.90
14908;DHT22;7545;52.092;7.006;2024-01-06T02:27:54;5.70;99.90
14908;DHT22;7545;52.092;7.006;2024-01-06T02:30:20;5.60;99.90
14908;DHT22;7545;52.092;7.006;2024-01-06T02:32:46;5.60;99.90
14908;DHT22;7545;52.092;7.006;2024-01-06T02:35:11;5.60;99.90
14908;DHT22;7545;52.092;7.006;2024-01-06T02:37:37;5.70;99.90
14908;DHT22;7545;52.092;7.006;2024-01-06T02:40:02;5.60;99.90
14908;DHT22;7545;52.092;7.006;2024-01-06T02:42:28;5.60;99.90
14908;DHT22;7545;52.092;7.006;2024-01-06T02:44:54;5.60;99.90
14908;DHT22;7545;52.092;7.006;2024-01-06T02:47:19;5.60;99.90
14908;DHT22;7545;52.092;7.006;2024-01-06T02:49:45;5.50;99.90
14908;DHT22;7545;52.092;7.006;2024-01-06T02:52:10;5.60;99.90
14908;DHT22;7545;52.092;7.006;2024-01-06T02:54:36;5.60;99.90
14908;DHT22;7545;52.092;7.006;2024-01-06T02:57:02;5.60;99.90
14908;DHT22;7545;52.092;7.006;2024-01-06T02:59:27;5.60;99.90
14908;DHT22;7545;52.092;7.006;2024-01-06T03:01:53;5.60;99.90
14908;DHT22;7545;52.092;7.006;2024-01-06T03:04:18;5.60;99.90
14908;DHT22;7545;52.092;7.006;2024-01-06T03:06:44;5.60;99.90
14908;DHT22;7545;52.092;7.006;2024-01-06T03:09:11;5.50;99.90
14908;DHT22;7545;52.092;7.006;2024-01-06T03:11:37;5.50;99.90
14908;DHT22;7545;52.092;7.006;2024-01-06T03:14:02;5.50;99.90
14908;DHT22;7545;52.092;7.006;2024-01-06T03:16:28;5.40;99.90
14908;DHT22;7545;52.092;7.006;2024-01-06T03:18:53;5.40;99.90
14908;DHT22;7545;52.092;7.006;2024-01-06T03:21:20;5.40;99.90
14908;DHT22;7545;52.092;7.006;2024-01-06T03:23:46;5.40;99.90
14908;DHT22;7545;52.092;7.006;2024-01-06T03:26:12;5.40;99.90
14908;DHT22;7545;52.092;7.006;2024-01-06T03:28:37;5.40;99.90
14908;DHT22;7545;52.092;7.006;2024-01-06T03:31:03;5.30;99.90
14908;DHT22;7545;52.092;7.006;2024-01-06T03:33:28;5.30;99.90
14908;DHT22;7545;52.092;7.006;2024-01-06T03:35:54;5.30;99.90
14908;DHT22;7545;52.092;7.006;2024-01-06T03:38:19;5.20;99.90
14908;DHT22;7545;52.092;7.006;2024-01-06T03:40:45;5.20;99.90
14908;DHT22;7545;52.092;7.006;2024-01-06T03:43:11;5.20;99.90
14908;DHT22;7545;52.092;7.006;2024-01-06T03:45:36;5.10;99.90
14908;DHT22;7545;52.092;7.006;2024-01-06T03:48:02;5.20;99.90
14908;DHT22;7545;52.092;7.006;2024-01-06T03:50:27;5.10;99.90
14908;DHT22;7545;52.092;7.006;2024-01-06T03:52:53;5.10;99.90
14908;DHT22;7545;52.092;7.006;2024-01-06T03:55:18;5.10;99.90
14908;DHT22;7545;52.092;7.006;2024-01-06T03:57:44;5.10;99.90
14908;DHT22;7545;52.092;7.006;2024-01-06T04:00:10;5.00;99.90
14908;DHT22;7545;52.092;7.006;2024-01-06T04:02:35;5.10;99.90
14908;DHT22;7545;52.092;7.006;2024-01-06T04:05:01;5.00;99.90
14908;DHT22;7545;52.092;7.006;2024-01-06T04:07:27;5.00;99.90
14908;DHT22;7545;52.092;7.006;2024-01-06T04:09:52;5.10;99.90
14908;DHT22;7545;52.092;7.006;2024-01-06T04:12:18;5.10;99.90
14908;DHT22;7545;52.092;7.006;2024-01-06T04:14:43;5.00;99.90
14908;DHT22;7545;52.092;7.006;2024-01-06T04:17:09;5.10;99.90
14908;DHT22;7545;52.092;7.006;2024-01-06T04:19:34;5.00;99.90
14908;DHT22;7545;52.092;7.006;2024-01-06T04:22:00;5.00;99.90
14908;DHT22;7545;52.092;7.006;2024-01-06T04:24:26;5.00;99.90
14908;DHT22;7545;52.092;7.006;2024-01-06T04:26:51;4.80;99.90
14908;DHT22;7545;52.092;7.006;2024-01-06T04:29:17;4.90;99.90
14908;DHT22;7545;52.092;7.006;2024-01-06T04:31:42;4.90;99.90
14908;DHT22;7545;52.092;7.006;2024-01-06T04:34:08;4.90;99.90
14908;DHT22;7545;52.092;7.006;2024-01-06T04:36:36;5.00;99.90
14908;DHT22;7545;52.092;7.006;2024-01-06T04:39:02;5.00;99.90
14908;DHT22;7545;52.092;7.006;2024-01-06T04:41:28;5.10;99.90
14908;DHT22;7545;52.092;7.006;2024-01-06T04:43:53;5.10;99.90
14908;DHT22;7545;52.092;7.006;2024-01-06T04:46:19;5.10;99.90
14908;DHT22;7545;52.092;7.006;2024-01-06T04:48:44;5.10;99.90
14908;DHT22;7545;52.092;7.006;2024-01-06T04:51:10;5.10;99.90
14908;DHT22;7545;52.092;7.006;2024-01-06T04:53:36;5.10;99.90
14908;DHT22;7545;52.092;7.006;2024-01-06T04:56:02;5.10;99.90
14908;DHT22;7545;52.092;7.006;2024-01-06T04:58:28;5.10;99.90
14908;DHT22;7545;52.092;7.006;2024-01-06T05:00:53;5.10;99.90
14908;DHT22;7545;52.092;7.006;2024-01-06T05:03:19;5.00;99.90
14908;DHT22;7545;52.092;7.006;2024-01-06T05:05:44;5.00;99.90
14908;DHT22;7545;52.092;7.006;2024-01-06T05:08:10;5.00;99.90
14908;DHT22;7545;52.092;7.006;2024-01-06T05:10:36;5.00;99.90
14908;DHT22;7545;52.092;7.006;2024-01-06T05:13:01;5.00;99.90
14908;DHT22;7545;52.092;7.006;2024-01-06T05:15:27;4.90;99.90
14908;DHT22;7545;52.092;7.006;2024-01-06T05:17:52;4.80;99.90
14908;DHT22;7545;52.092;7.006;2024-01-06T05:20:18;4.80;99.90
14908;DHT22;7545;52.092;7.006;2024-01-06T05:22:43;4.80;99.90
14908;DHT22;7545;52.092;7.006;2024-01-06T05:25:09;4.80;99.90
14908;DHT22;7545;52.092;7.006;2024-01-06T05:27:35;4.80;99.90
14908;DHT22;7545;52.092;7.006;2024-01-06T05:30:00;4.70;99.90
14908;DHT22;7545;52.092;7.006;2024-01-06T05:32:26;4.70;99.90
14908;DHT22;7545;52.092;7.006;2024-01-06T05:34:52;4.70;99.90
14908;DHT22;7545;52.092;7.006;2024-01-06T05:37:17;4.60;99.90
14908;DHT22;7545;52.092;7.006;2024-01-06T05:39:43;4.60;99.90
14908;DHT22;7545;52.092;7.006;2024-01-06T05:42:10;4.60;99.90
14908;DHT22;7545;52.092;7.006;2024-01-06T05:44:38;4.70;99.90
14908;DHT22;7545;52.092;7.006;2024-01-06T05:47:04;4.60;99.90
14908;DHT22;7545;52.092;7.006;2024-01-06T05:49:29;4.50;99.90
14908;DHT22;7545;52.092;7.006;2024-01-06T05:51:55;4.40;99.90
14908;DHT22;7545;52.092;7.006;2024-01-06T05:54:20;4.40;99.90
14908;DHT22;7545;52.092;7.006;2024-01-06T05:56:47;4.50;99.90
14908;DHT22;7545;52.092;7.006;2024-01-06T05:59:12;4.40;99.90
14908;DHT22;7545;52.092;7.006;2024-01-06T06:01:38;4.40;99.90
14908;DHT22;7545;52.092;7.006;2024-01-06T06:04:03;4.30;99.90
14908;DHT22;7545;52.092;7.006;2024-01-06T06:06:30;4.30;99.90
14908;DHT22;7545;52.092;7.006;2024-01-06T06:08:55;4.40;99.90
14908;DHT22;7545;52.092;7.006;2024-01-06T06:11:21;4.40;99.90
14908;DHT22;7545;52.092;7.006;2024-01-06T06:13:47;4.40;99.90
14908;DHT22;7545;52.092;7.006;2024-01-06T06:16:12;4.40;99.90
14908;DHT22;7545;52.092;7.006;2024-01-06T06:18:38;4.40;99.90
14908;DHT22;7545;52.092;7.006;2024-01-06T06:21:05;4.40;99.90
14908;DHT22;7545;52.092;7.006;2024-01-06T06:23:31;4.40;99.90
14908;DHT22;7545;52.092;7.006;2024-01-06T06:25:57;4.40;99.90
14908;DHT22;7545;52.092;7.006;2024-01-06T06:28:22;4.30;99.90
14908;DHT22;7545;52.092;7.006;2024-01-06T06:30:48;4.30;99.90
14908;DHT22;7545;52.092;7.006;2024-01-06T06:33:14;4.30;99.90
14908;DHT22;7545;52.092;7.006;2024-01-06T06:35:39;4.30;99.90
14908;DHT22;7545;52.092;7.006;2024-01-06T06:38:05;4.20;99.90
14908;DHT22;7545;52.092;7.006;2024-01-06T06:40:31;4.20;99.90
14908;DHT22;7545;52.092;7.006;2024-01-06T06:42:57;4.20;99.90
14908;DHT22;7545;52.092;7.006;2024-01-06T06:45:22;4.20;99.90
14908;DHT22;7545;52.092;7.006;2024-01-06T06:47:49;4.30;99.90
14908;DHT22;7545;52.092;7.006;2024-01-06T06:50:16;4.30;99.90
14908;DHT22;7545;52.092;7.006;2024-01-06T06:52:42;4.20;99.90
14908;DHT22;7545;52.092;7.006;2024-01-06T06:55:08;4.20;99.90
14908;DHT22;7545;52.092;7.006;2024-01-06T06:57:33;4.20;99.90
14908;DHT22;7545;52.092;7.006;2024-01-06T06:59:59;4.10;99.90
14908;DHT22;7545;52.092;7.006;2024-01-06T07:02:25;4.10;99.90
14908;DHT22;7545;52.092;7.006;2024-01-06T07:04:51;4.20;99.90
14908;DHT22;7545;52.092;7.006;2024-01-06T07:07:17;4.20;99.90
14908;DHT22;7545;52.092;7.006;2024-01-06T07:09:42;4.30;99.90
14908;DHT22;7545;52.092;7.006;2024-01-06T07:12:08;4.30;99.90
14908;DHT22;7545;52.092;7.006;2024-01-06T07:14:33;4.20;99.90
14908;DHT22;7545;52.092;7.006;2024-01-06T07:16:59;4.20;99.90
14908;DHT22;7545;52.092;7.006;2024-01-06T07:19:24;4.20;99.90
14908;DHT22;7545;52.092;7.006;2024-01-06T07:21:50;4.20;99.90
14908;DHT22;7545;52.092;7.006;2024-01-06T07:24:16;4.20;99.90
14908;DHT22;7545;52.092;7.006;2024-01-06T07:26:41;4.30;99.90
14908;DHT22;7545;52.092;7.006;2024-01-06T07:29:07;4.30;99.90
14908;DHT22;7545;52.092;7.006;2024-01-06T07:31:33;4.40;99.90
14908;DHT22;7545;52.092;7.006;2024-01-06T07:33:59;4.30;99.90
14908;DHT22;7545;52.092;7.006;2024-01-06T07:36:25;4.30;99.90
14908;DHT22;7545;52.092;7.006;2024-01-06T07:38:51;4.40;99.90
14908;DHT22;7545;52.092;7.006;2024-01-06T07:41:17;4.40;99.90
14908;DHT22;7545;52.092;7.006;2024-01-06T07:43:43;4.40;99.90
14908;DHT22;7545;52.092;7.006;2024-01-06T07:46:09;4.40;99.90
14908;DHT22;7545;52.092;7.006;2024-01-06T07:48:35;4.40;99.90
14908;DHT22;7545;52.092;7.006;2024-01-06T07:51:01;4.30;99.90
14908;DHT22;7545;52.092;7.006;2024-01-06T07:53:27;4.30;99.90
14908;DHT22;7545;52.092;7.006;2024-01-06T07:55:52;4.20;99.90
14908;DHT22;7545;52.092;7.006;2024-01-06T07:58:18;4.10;99.90
14908;DHT22;7545;52.092;7.006;2024-01-06T08:00:43;4.10;99.90
14908;DHT22;7545;52.092;7.006;2024-01-06T08:03:10;4.20;99.90
14908;DHT22;7545;52.092;7.006;2024-01-06T08:05:36;4.20;99.90
14908;DHT22;7545;52.092;7.006;2024-01-06T08:08:03;4.20;99.90
14908;DHT22;7545;52.092;7.006;2024-01-06T08:10:29;4.20;99.90
14908;DHT22;7545;52.092;7.006;2024-01-06T08:12:55;4.10;99.90
14908;DHT22;7545;52.092;7.006;2024-01-06T08:15:21;4.00;99.90
14908;DHT22;7545;52.092;7.006;2024-01-06T08:17:46;4.00;99.90
14908;DHT22;7545;52.092;7.006;2024-01-06T08:20:12;4.00;99.90
14908;DHT22;7545;52.092;7.006;2024-01-06T08:22:38;4.10;99.90
14908;DHT22;7545;52.092;7.006;2024-01-06T08:25:04;4.00;99.90
14908;DHT22;7545;52.092;7.006;2024-01-06T08:27:31;3.90;99.90
14908;DHT22;7545;52.092;7.006;2024-01-06T08:29:57;3.90;99.90
14908;DHT22;7545;52.092;7.006;2024-01-06T08:32:22;4.00;99.90
14908;DHT22;7545;52.092;7.006;2024-01-06T08:34:48;4.00;99.90
14908;DHT22;7545;52.092;7.006;2024-01-06T08:37:14;4.00;99.90
14908;DHT22;7545;52.092;7.006;2024-01-06T08:39:39;4.00;99.90
14908;DHT22;7545;52.092;7.006;2024-01-06T08:42:05;4.00;99.90
14908;DHT22;7545;52.092;7.006;2024-01-06T08:44:31;4.00;99.90
14908;DHT22;7545;52.092;7.006;2024-01-06T08:46:56;4.10;99.90
14908;DHT22;7545;52.092;7.006;2024-01-06T08:49:22;4.10;99.90
14908;DHT22;7545;52.092;7.006;2024-01-06T08:51:47;4.10;99.90
14908;DHT22;7545;52.092;7.006;2024-01-06T08:54:13;4.10;99.90
14908;DHT22;7545;52.092;7.006;2024-01-06T08:56:39;4.10;99.90
14908;DHT22;7545;52.092;7.006;2024-01-06T08:59:04;4.10;99.90
14908;DHT22;7545;52.092;7.006;2024-01-06T09:01:30;4.10;99.90
14908;DHT22;7545;52.092;7.006;2024-01-06T09:03:57;4.10;99.90
14908;DHT22;7545;52.092;7.006;2024-01-06T09:06:23;4.10;99.90
14908;DHT22;7545;52.092;7.006;2024-01-06T09:08:49;4.10;99.90
14908;DHT22;7545;52.092;7.006;2024-01-06T09:11:14;4.10;99.90
14908;DHT22;7545;52.092;7.006;2024-01-06T09:13:40;4.00;99.90
14908;DHT22;7545;52.092;7.006;2024-01-06T09:16:05;4.00;99.90
14908;DHT22;7545;52.092;7.006;2024-01-06T09:18:31;4.10;99.90
14908;DHT22;7545;52.092;7.006;2024-01-06T09:20:57;4.00;99.90
14908;DHT22;7545;52.092;7.006;2024-01-06T09:23:22;4.00;99.90
14908;DHT22;7545;52.092;7.006;2024-01-06T09:25:48;4.00;99.90
14908;DHT22;7545;52.092;7.006;2024-01-06T09:28:18;4.00;99.90
14908;DHT22;7545;52.092;7.006;2024-01-06T09:30:43;3.90;99.90
14908;DHT22;7545;52.092;7.006;2024-01-06T09:33:09;4.00;99.90
14908;DHT22;7545;52.092;7.006;2024-01-06T09:35:34;3.90;99.90
14908;DHT22;7545;52.092;7.006;2024-01-06T09:38:00;3.90;99.90
14908;DHT22;7545;52.092;7.006;2024-01-06T09:40:26;3.90;99.90
14908;DHT22;7545;52.092;7.006;2024-01-06T09:42:52;3.90;99.90
14908;DHT22;7545;52.092;7.006;2024-01-06T09:45:20;3.90;99.90
14908;DHT22;7545;52.092;7.006;2024-01-06T09:47:51;3.80;99.90
14908;DHT22;7545;52.092;7.006;2024-01-06T09:50:20;3.80;99.90
14908;DHT22;7545;52.092;7.006;2024-01-06T09:52:47;3.80;99.90
14908;DHT22;7545;52.092;7.006;2024-01-06T09:55:24;3.80;99.90
14908;DHT22;7545;52.092;7.006;2024-01-06T09:57:52;3.90;99.90
14908;DHT22;7545;52.092;7.006;2024-01-06T10:00:19;3.90;99.90
14908;DHT22;7545;52.092;7.006;2024-01-06T10:02:45;3.90;99.90
14908;DHT22;7545;52.092;7.006;2024-01-06T10:05:12;4.00;99.90
14908;DHT22;7545;52.092;7.006;2024-01-06T10:07:41;4.00;99.90
14908;DHT22;7545;52.092;7.006;2024-01-06T10:10:07;4.00;99.90
14908;DHT22;7545;52.092;7.006;2024-01-06T10:12:33;4.00;99.90
14908;DHT22;7545;52.092;7.006;2024-01-06T10:14:58;4.10;99.90
14908;DHT22;7545;52.092;7.006;2024-01-06T10:17:24;4.00;99.90
14908;DHT22;7545;52.092;7.006;2024-01-06T10:19:50;4.10;99.90
14908;DHT22;7545;52.092;7.006;2024-01-06T10:22:19;4.10;99.90
14908;DHT22;7545;52.092;7.006;2024-01-06T10:24:45;4.10;99.90
14908;DHT22;7545;52.092;7.006;2024-01-06T10:27:11;4.10;99.90
14908;DHT22;7545;52.092;7.006;2024-01-06T10:29:36;4.10;99.90
14908;DHT22;7545;52.092;7.006;2024-01-06T10:32:02;4.10;99.90
14908;DHT22;7545;52.092;7.006;2024-01-06T10:34:28;4.10;99.90
14908;DHT22;7545;52.092;7.006;2024-01-06T10:36:54;4.00;99.90
14908;DHT22;7545;52.092;7.006;2024-01-06T10:39:21;4.00;99.90
14908;DHT22;7545;52.092;7.006;2024-01-06T10:41:50;4.10;99.90
14908;DHT22;7545;52.092;7.006;2024-01-06T10:44:17;4.10;99.90
14908;DHT22;7545;52.092;7.006;2024-01-06T10:46:44;4.10;99.90
14908;DHT22;7545;52.092;7.006;2024-01-06T10:49:11;4.00;99.90
14908;DHT22;7545;52.092;7.006;2024-01-06T10:51:38;4.00;99.90
14908;DHT22;7545;52.092;7.006;2024-01-06T10:54:04;4.10;99.90
14908;DHT22;7545;52.092;7.006;2024-01-06T10:56:36;4.10;99.90
14908;DHT22;7545;52.092;7.006;2024-01-06T10:59:03;4.00;99.90
14908;DHT22;7545;52.092;7.006;2024-01-06T11:01:29;4.00;99.90
14908;DHT22;7545;52.092;7.006;2024-01-06T11:03:55;4.00;99.90
14908;DHT22;7545;52.092;7.006;2024-01-06T11:06:21;4.00;99.90
14908;DHT22;7545;52.092;7.006;2024-01-06T11:08:59;4.00;99.90
14908;DHT22;7545;52.092;7.006;2024-01-06T11:11:27;4.10;99.90
14908;DHT22;7545;52.092;7.006;2024-01-06T11:13:53;4.10;99.90
14908;DHT22;7545;52.092;7.006;2024-01-06T11:16:38;4.10;99.90
14908;DHT22;7545;52.092;7.006;2024-01-06T11:19:45;4.10;99.90
14908;DHT22;7545;52.092;7.006;2024-01-06T11:22:30;4.10;99.90
14908;DHT22;7545;52.092;7.006;2024-01-06T11:25:06;4.10;99.90
14908;DHT22;7545;52.092;7.006;2024-01-06T11:27:32;4.00;99.90
14908;DHT22;7545;52.092;7.006;2024-01-06T11:30:00;4.00;99.90
14908;DHT22;7545;52.092;7.006;2024-01-06T11:32:29;4.00;99.90
14908;DHT22;7545;52.092;7.006;2024-01-06T11:34:56;3.90;99.90
14908;DHT22;7545;52.092;7.006;2024-01-06T11:40:15;3.90;99.90
14908;DHT22;7545;52.092;7.006;2024-01-06T11:42:42;4.00;99.90
14908;DHT22;7545;52.092;7.006;2024-01-06T11:45:08;4.00;99.90
14908;DHT22;7545;52.092;7.006;2024-01-06T11:47:34;4.00;99.90
14908;DHT22;7545;52.092;7.006;2024-01-06T11:50:01;3.90;99.90
14908;DHT22;7545;52.092;7.006;2024-01-06T11:52:34;3.90;99.90
14908;DHT22;7545;52.092;7.006;2024-01-06T11:55:00;3.90;99.90
14908;DHT22;7545;52.092;7.006;2024-01-06T11:57:27;4.00;99.90
14908;DHT22;7545;52.092;7.006;2024-01-06T11:59:53;4.00;99.90
14908;DHT22;7545;52.092;7.006;2024-01-06T12:02:19;4.00;99.90
14908;DHT22;7545;52.092;7.006;2024-01-06T12:04:50;3.90;99.90
14908;DHT22;7545;52.092;7.006;2024-01-06T12:07:16;3.90;99.90
14908;DHT22;7545;52.092;7.006;2024-01-06T12:09:42;3.90;99.90
14908;DHT22;7545;52.092;7.006;2024-01-06T12:12:08;3.90;99.90
14908;DHT22;7545;52.092;7.006;2024-01-06T12:14:36;3.80;99.90
14908;DHT22;7545;52.092;7.006;2024-01-06T12:17:01;3.80;99.90
14908;DHT22;7545;52.092;7.006;2024-01-06T12:19:32;3.90;99.90
14908;DHT22;7545;52.092;7.006;2024-01-06T12:21:58;3.90;99.90
14908;DHT22;7545;52.092;7.006;2024-01-06T12:24:23;3.90;99.90
14908;DHT22;7545;52.092;7.006;2024-01-06T12:26:49;3.90;99.90
14908;DHT22;7545;52.092;7.006;2024-01-06T12:29:17;4.00;99.90
14908;DHT22;7545;52.092;7.006;2024-01-06T12:31:43;3.90;99.90
14908;DHT22;7545;52.092;7.006;2024-01-06T12:34:10;3.90;99.90
14908;DHT22;7545;52.092;7.006;2024-01-06T12:36:39;3.90;99.90
14908;DHT22;7545;52.092;7.006;2024-01-06T12:39:10;3.80;99.90
14908;DHT22;7545;52.092;7.006;2024-01-06T12:41:41;3.90;99.90
14908;DHT22;7545;52.092;7.006;2024-01-06T12:44:07;3.80;99.90
14908;DHT22;7545;52.092;7.006;2024-01-06T12:46:33;3.90;99.90
14908;DHT22;7545;52.092;7.006;2024-01-06T12:48:59;3.90;99.90
14908;DHT22;7545;52.092;7.006;2024-01-06T12:51:24;4.00;99.90
14908;DHT22;7545;52.092;7.006;2024-01-06T12:53:50;4.00;99.90
14908;DHT22;7545;52.092;7.006;2024-01-06T12:56:16;4.00;99.90
14908;DHT22;7545;52.092;7.006;2024-01-06T12:58:42;4.00;99.90
14908;DHT22;7545;52.092;7.006;2024-01-06T13:01:09;4.00;99.90
14908;DHT22;7545;52.092;7.006;2024-01-06T13:03:35;3.90;99.90
14908;DHT22;7545;52.092;7.006;2024-01-06T13:06:01;4.00;99.90
14908;DHT22;7545;52.092;7.006;2024-01-06T13:08:27;3.90;99.90
14908;DHT22;7545;52.092;7.006;2024-01-06T13:10:53;3.90;99.90
14908;DHT22;7545;52.092;7.006;2024-01-06T13:13:19;4.00;99.90
14908;DHT22;7545;52.092;7.006;2024-01-06T13:15:45;4.00;99.90
14908;DHT22;7545;52.092;7.006;2024-01-06T13:18:12;4.00;99.90
14908;DHT22;7545;52.092;7.006;2024-01-06T13:20:38;4.10;99.90
14908;DHT22;7545;52.092;7.006;2024-01-06T13:23:06;4.10;99.90
14908;DHT22;7545;52.092;7.006;2024-01-06T13:25:32;4.10;99.90
14908;DHT22;7545;52.092;7.006;2024-01-06T13:27:58;4.10;99.90
14908;DHT22;7545;52.092;7.006;2024-01-06T13:30:25;4.10;99.90
14908;DHT22;7545;52.092;7.006;2024-01-06T13:32:53;4.10;99.90
14908;DHT22;7545;52.092;7.006;2024-01-06T13:35:22;4.00;99.90
14908;DHT22;7545;52.092;7.006;2024-01-06T13:37:50;4.00;99.90
14908;DHT22;7545;52.092;7.006;2024-01-06T13:40:17;3.90;99.90
14908;DHT22;7545;52.092;7.006;2024-01-06T13:42:46;3.90;99.90
14908;DHT22;7545;52.092;7.006;2024-01-06T13:45:12;4.00;99.90
14908;DHT22;7545;52.092;7.006;2024-01-06T13:47:38;3.90;99.90
14908;DHT22;7545;52.092;7.006;2024-01-06T13:50:08;3.90;99.90
14908;DHT22;7545;52.092;7.006;2024-01-06T13:52:33;3.90;99.90
14908;DHT22;7545;52.092;7.006;2024-01-06T13:55:00;3.90;99.90
14908;DHT22;7545;52.092;7.006;2024-01-06T13:57:25;3.90;99.90
14908;DHT22;7545;52.092;7.006;2024-01-06T13:59:51;3.90;99.90
14908;DHT22;7545;52.092;7.006;2024-01-06T14:02:16;3.90;99.90
14908;DHT22;7545;52.092;7.006;2024-01-06T14:04:43;3.80;99.90
14908;DHT22;7545;52.092;7.006;2024-01-06T14:07:08;3.80;99.90
14908;DHT22;7545;52.092;7.006;2024-01-06T14:09:36;3.80;99.90
14908;DHT22;7545;52.092;7.006;2024-01-06T14:12:02;3.80;99.90
14908;DHT22;7545;52.092;7.006;2024-01-06T14:14:27;3.80;99.90
14908;DHT22;7545;52.092;7.006;2024-01-06T14:16:53;3.80;99.90
14908;DHT22;7545;52.092;7.006;2024-01-06T14:19:19;3.80;99.90
14908;DHT22;7545;52.092;7.006;2024-01-06T14:21:44;3.80;99.90
14908;DHT22;7545;52.092;7.006;2024-01-06T14:24:10;3.80;99.90
14908;DHT22;7545;52.092;7.006;2024-01-06T14:26:35;3.70;99.90
14908;DHT22;7545;52.092;7.006;2024-01-06T14:29:01;3.70;99.90
14908;DHT22;7545;52.092;7.006;2024-01-06T14:31:27;3.70;99.90
14908;DHT22;7545;52.092;7.006;2024-01-06T14:33:53;3.70;99.90
14908;DHT22;7545;52.092;7.006;2024-01-06T14:36:18;3.70;99.90
14908;DHT22;7545;52.092;7.006;2024-01-06T14:38:44;3.70;99.90
14908;DHT22;7545;52.092;7.006;2024-01-06T14:41:09;3.70;99.90
14908;DHT22;7545;52.092;7.006;2024-01-06T14:43:35;3.60;99.90
14908;DHT22;7545;52.092;7.006;2024-01-06T14:46:01;3.60;99.90
14908;DHT22;7545;52.092;7.006;2024-01-06T14:48:26;3.70;99.90
14908;DHT22;7545;52.092;7.006;2024-01-06T14:50:52;3.70;99.90
14908;DHT22;7545;52.092;7.006;2024-01-06T14:53:17;3.80;99.90
14908;DHT22;7545;52.092;7.006;2024-01-06T14:55:43;3.80;99.90
14908;DHT22;7545;52.092;7.006;2024-01-06T14:58:08;3.80;99.90
14908;DHT22;7545;52.092;7.006;2024-01-06T15:00:37;3.90;99.90
14908;DHT22;7545;52.092;7.006;2024-01-06T15:03:03;3.80;99.90
14908;DHT22;7545;52.092;7.006;2024-01-06T15:05:29;3.90;99.90
14908;DHT22;7545;52.092;7.006;2024-01-06T15:07:55;3.90;99.90
14908;DHT22;7545;52.092;7.006;2024-01-06T15:10:21;3.90;99.90
14908;DHT22;7545;52.092;7.006;2024-01-06T15:12:47;3.80;99.90
14908;DHT22;7545;52.092;7.006;2024-01-06T15:15:13;3.80;99.90
14908;DHT22;7545;52.092;7.006;2024-01-06T15:17:39;3.90;99.90
14908;DHT22;7545;52.092;7.006;2024-01-06T15:20:05;3.80;99.90
14908;DHT22;7545;52.092;7.006;2024-01-06T15:22:31;3.80;99.90
14908;DHT22;7545;52.092;7.006;2024-01-06T15:24:57;3.80;99.90
14908;DHT22;7545;52.092;7.006;2024-01-06T15:27:23;3.80;99.90
14908;DHT22;7545;52.092;7.006;2024-01-06T15:29:48;3.80;99.90
14908;DHT22;7545;52.092;7.006;2024-01-06T15:32:14;3.90;99.90
14908;DHT22;7545;52.092;7.006;2024-01-06T15:34:40;3.80;99.90
14908;DHT22;7545;52.092;7.006;2024-01-06T15:37:05;3.80;99.90
14908;DHT22;7545;52.092;7.006;2024-01-06T15:39:31;3.70;99.90
14908;DHT22;7545;52.092;7.006;2024-01-06T15:41:56;3.80;99.90
14908;DHT22;7545;52.092;7.006;2024-01-06T15:44:22;3.80;99.90
14908;DHT22;7545;52.092;7.006;2024-01-06T15:46:47;3.70;99.90
14908;DHT22;7545;52.092;7.006;2024-01-06T15:49:14;3.60;99.90
14908;DHT22;7545;52.092;7.006;2024-01-06T15:51:40;3.70;99.90
14908;DHT22;7545;52.092;7.006;2024-01-06T15:54:05;3.60;99.90
14908;DHT22;7545;52.092;7.006;2024-01-06T15:56:31;3.60;99.90
14908;DHT22;7545;52.092;7.006;2024-01-06T15:58:57;3.70;99.90